Time;durP1;ratioP1;P1;durP2;ratioP2;P2;SDS_P1;SDS_P2;PMS_P1;PMS_P2;Temp;Humidity;BMP_temperature;BMP_pressure;BME280_temperature;BME280_humidity;BME280_pressure;Samples;Min_cycle;Max_cycle;Signal;HPM_P1;HPM_P2
2024/03/09 00:01:21;;;;;;;11.48;5.38;;;1.60;80.30;;;;;;5038977;28;20120;-65
2024/03/09 00:03:46;;;;;;;10.30;5.13;;;1.60;80.40;;;;;;5036927;28;20053;-65
2024/03/09 00:06:12;;;;;;;11.02;5.22;;;1.60;80.40;;;;;;5035831;28;20362;-65
2024/03/09 00:08:43;;;;;;;11.77;4.93;;;1.70;80.30;;;;;;5036863;28;20029;-65
2024/03/09 00:11:09;;;;;;;9.57;5.35;;;1.70;80.10;;;;;;5032455;28;20353;-65
2024/03/09 00:13:35;;;;;;;10.25;5.03;;;1.60;80.30;;;;;;5039309;28;20105;-65
2024/03/09 00:16:01;;;;;;;11.25;5.32;;;1.70;80.40;;;;;;5033790;28;20350;-66
2024/03/09 00:18:27;;;;;;;11.63;5.00;;;1.60;80.40;;;;;;5042811;28;20034;-65
2024/03/09 00:20:53;;;;;;;12.82;5.18;;;1.70;80.50;;;;;;5038116;28;20096;-65
2024/03/09 00:23:20;;;;;;;13.13;5.03;;;1.60;80.60;;;;;;5037911;28;20040;-65
2024/03/09 00:25:45;;;;;;;10.77;5.28;;;1.60;81.00;;;;;;5036078;28;20376;-65
2024/03/09 00:28:12;;;;;;;8.57;4.18;;;1.60;81.10;;;;;;5040919;28;20140;-65
2024/03/09 00:30:37;;;;;;;13.23;5.55;;;1.60;81.00;;;;;;5034469;28;20174;-65
2024/03/09 00:33:05;;;;;;;10.85;5.35;;;1.60;80.90;;;;;;5036739;28;20119;-65
2024/03/09 00:35:31;;;;;;;12.10;5.70;;;1.60;81.00;;;;;;5031994;28;20039;-65
2024/03/09 00:37:58;;;;;;;10.00;4.20;;;1.60;81.00;;;;;;5029020;28;20478;-67
2024/03/09 00:40:28;;;;;;;12.57;5.35;;;1.60;81.00;;;;;;5033500;28;20042;-64
2024/03/09 00:42:55;;;;;;;12.70;5.75;;;1.60;81.30;;;;;;5036097;28;20102;-67
2024/03/09 00:45:21;;;;;;;11.73;5.65;;;1.60;81.30;;;;;;5030810;28;20522;-67
2024/03/09 00:47:47;;;;;;;13.82;6.18;;;1.60;81.50;;;;;;5034956;28;20445;-65
2024/03/09 00:50:15;;;;;;;14.38;5.97;;;1.50;81.50;;;;;;5032236;28;20041;-64
2024/03/09 00:52:41;;;;;;;10.15;5.57;;;1.40;81.60;;;;;;5035017;28;20041;-66
2024/03/09 00:55:10;;;;;;;12.32;5.32;;;1.40;81.90;;;;;;5030895;28;20036;-65
2024/03/09 00:57:39;;;;;;;12.88;6.10;;;1.30;82.30;;;;;;5029848;28;20067;-65
2024/03/09 01:00:10;;;;;;;12.25;5.65;;;1.30;82.40;;;;;;5032749;28;20047;-65
2024/03/09 01:02:37;;;;;;;11.80;5.80;;;1.20;82.50;;;;;;5038088;28;20033;-65
2024/03/09 01:05:02;;;;;;;12.68;5.03;;;1.20;82.60;;;;;;5031551;28;20128;-67
2024/03/09 01:07:30;;;;;;;11.65;5.25;;;1.20;82.60;;;;;;5033875;28;20426;-65
2024/03/09 01:09:55;;;;;;;13.02;5.20;;;1.30;82.60;;;;;;5031941;28;20021;-65
2024/03/09 01:12:21;;;;;;;13.02;5.75;;;1.20;82.70;;;;;;5031120;28;20074;-66
2024/03/09 01:14:48;;;;;;;11.68;5.60;;;1.20;82.60;;;;;;5033300;28;20417;-64
2024/03/09 01:17:23;;;;;;;10.18;4.57;;;1.20;82.70;;;;;;5029686;28;20147;-65
2024/03/09 01:19:50;;;;;;;10.80;5.03;;;1.20;82.80;;;;;;5028010;28;20188;-65
2024/03/09 01:22:19;;;;;;;12.35;5.45;;;1.30;82.90;;;;;;5029685;28;20091;-65
2024/03/09 01:24:45;;;;;;;10.45;4.72;;;1.30;82.80;;;;;;5029404;28;20056;-65
2024/03/09 01:27:11;;;;;;;10.95;6.20;;;1.30;82.80;;;;;;5039674;28;20421;-66
2024/03/09 01:29:36;;;;;;;12.75;5.72;;;1.30;83.00;;;;;;5026773;28;20041;-66
2024/03/09 01:32:03;;;;;;;13.48;5.93;;;1.30;82.80;;;;;;5030024;28;20029;-67
2024/03/09 01:34:29;;;;;;;10.70;5.03;;;1.20;83.00;;;;;;5038393;28;20025;-66
2024/03/09 01:36:55;;;;;;;11.95;5.45;;;1.10;83.20;;;;;;5032260;28;20122;-65
2024/03/09 01:39:22;;;;;;;13.13;6.20;;;1.20;83.10;;;;;;5030382;28;20037;-66
2024/03/09 01:41:47;;;;;;;11.65;5.82;;;1.10;83.00;;;;;;5036558;28;20108;-65
2024/03/09 01:44:14;;;;;;;13.25;5.85;;;1.10;83.50;;;;;;5032249;28;20121;-67
2024/03/09 01:46:40;;;;;;;13.20;5.75;;;1.20;83.20;;;;;;5031960;28;20025;-65
2024/03/09 01:49:06;;;;;;;9.77;4.75;;;1.20;83.10;;;;;;5035362;28;20499;-65
2024/03/09 01:51:33;;;;;;;11.95;5.90;;;1.20;83.00;;;;;;5034036;28;20101;-66
2024/03/09 01:53:58;;;;;;;11.65;5.43;;;1.10;83.20;;;;;;5029992;28;20045;-65
2024/03/09 01:56:27;;;;;;;11.18;5.82;;;1.10;83.30;;;;;;5031742;28;20037;-66
2024/03/09 01:58:54;;;;;;;9.55;5.03;;;1.00;83.50;;;;;;5034249;28;20032;-63
2024/03/09 02:01:25;;;;;;;10.30;5.38;;;1.10;84.00;;;;;;5036041;28;20029;-65
2024/03/09 02:03:55;;;;;;;10.20;5.18;;;1.10;83.90;;;;;;5030437;28;20131;-65
2024/03/09 02:06:27;;;;;;;11.10;5.32;;;1.00;83.90;;;;;;5028574;28;20490;-65
2024/03/09 02:08:56;;;;;;;13.57;5.75;;;1.10;83.60;;;;;;5037036;28;20081;-65
2024/03/09 02:11:22;;;;;;;10.68;5.55;;;1.00;84.00;;;;;;5031586;28;20086;-64
2024/03/09 02:13:47;;;;;;;11.18;5.70;;;1.00;84.10;;;;;;5031321;28;20112;-65
2024/03/09 02:16:13;;;;;;;15.10;6.45;;;1.00;84.20;;;;;;5031630;28;20041;-64
2024/03/09 02:18:39;;;;;;;14.65;6.05;;;1.00;84.20;;;;;;5029326;28;20025;-65
2024/03/09 02:21:08;;;;;;;11.38;5.45;;;0.90;84.20;;;;;;5033769;28;20034;-64
2024/03/09 02:23:35;;;;;;;11.77;5.93;;;0.90;84.40;;;;;;5027531;28;20363;-64
2024/03/09 02:26:01;;;;;;;15.57;5.93;;;0.90;84.40;;;;;;5034697;28;20033;-64
2024/03/09 02:28:30;;;;;;;11.65;5.20;;;0.80;84.60;;;;;;5033132;28;20066;-65
2024/03/09 02:30:55;;;;;;;12.20;6.03;;;0.80;84.60;;;;;;5036738;28;20029;-65
2024/03/09 02:33:21;;;;;;;10.20;4.95;;;0.80;84.70;;;;;;5037789;28;20126;-65
2024/03/09 02:35:47;;;;;;;12.10;6.07;;;0.70;84.90;;;;;;5036142;28;20024;-65
2024/03/09 02:38:14;;;;;;;12.00;5.40;;;0.70;85.10;;;;;;5034288;28;20493;-66
2024/03/09 02:40:39;;;;;;;11.95;5.60;;;0.60;85.10;;;;;;5038371;28;20074;-64
2024/03/09 02:43:06;;;;;;;10.38;4.93;;;0.60;85.60;;;;;;5036549;28;20433;-65
2024/03/09 02:45:32;;;;;;;12.50;6.10;;;0.60;85.50;;;;;;5035880;28;20032;-65
2024/03/09 02:47:58;;;;;;;9.40;5.57;;;0.50;85.50;;;;;;5038083;28;20025;-64
2024/03/09 02:50:24;;;;;;;10.23;5.22;;;0.40;85.90;;;;;;5037191;28;20081;-64
2024/03/09 02:52:50;;;;;;;9.77;5.53;;;0.40;86.00;;;;;;5032098;28;20725;-65
2024/03/09 02:55:16;;;;;;;14.57;5.85;;;0.40;86.20;;;;;;5034789;28;20036;-64
2024/03/09 02:57:42;;;;;;;15.35;6.53;;;0.40;86.10;;;;;;5034007;28;20906;-64
2024/03/09 03:00:08;;;;;;;10.98;5.57;;;0.40;86.40;;;;;;5037617;28;20040;-64
2024/03/09 03:05:19;;;;;;;11.88;5.47;;;0.30;86.20;;;;;;5034497;28;20087;-65
2024/03/09 03:07:46;;;;;;;12.07;5.78;;;0.30;86.60;;;;;;5035483;28;20036;-64
2024/03/09 03:10:11;;;;;;;12.52;5.97;;;0.20;86.70;;;;;;5034253;28;20040;-66
2024/03/09 03:12:37;;;;;;;12.73;5.18;;;0.20;86.80;;;;;;5033141;28;20045;-64
2024/03/09 03:15:07;;;;;;;10.55;5.45;;;0.20;86.90;;;;;;5034714;28;20154;-65
2024/03/09 03:17:33;;;;;;;15.50;5.25;;;0.10;87.00;;;;;;5036818;28;20029;-64
2024/03/09 03:19:59;;;;;;;14.63;6.78;;;0.20;87.20;;;;;;5038594;28;20048;-64
2024/03/09 03:22:24;;;;;;;13.43;6.65;;;0.20;87.00;;;;;;5037974;28;20060;-65
2024/03/09 03:24:50;;;;;;;12.18;5.28;;;0.10;87.10;;;;;;5033963;28;20777;-64
2024/03/09 03:27:19;;;;;;;14.32;5.97;;;0.10;87.20;;;;;;5036130;28;20048;-65
2024/03/09 03:29:44;;;;;;;16.13;6.88;;;0.10;87.50;;;;;;5040761;28;20025;-64
2024/03/09 03:32:10;;;;;;;13.68;6.10;;;0.00;87.50;;;;;;5035166;28;20338;-64
2024/03/09 03:34:37;;;;;;;11.85;4.97;;;0.10;87.70;;;;;;5036739;28;20665;-64
2024/03/09 03:37:04;;;;;;;13.43;5.53;;;0.10;87.90;;;;;;5035325;28;20036;-65
2024/03/09 03:39:30;;;;;;;13.38;5.95;;;0.00;87.80;;;;;;5037513;28;20033;-64
2024/03/09 03:41:55;;;;;;;11.23;5.28;;;0.00;88.10;;;;;;5035661;28;20115;-65
2024/03/09 03:44:21;;;;;;;13.55;6.60;;;0.10;88.30;;;;;;5034722;28;20044;-65
2024/03/09 03:46:47;;;;;;;13.15;5.88;;;0.00;88.20;;;;;;5033383;28;20595;-65
2024/03/09 03:49:12;;;;;;;15.10;6.28;;;0.00;88.30;;;;;;5034136;28;20037;-65
2024/03/09 03:51:39;;;;;;;14.93;7.07;;;0.10;88.40;;;;;;5033230;28;20061;-65
2024/03/09 03:54:04;;;;;;;15.00;6.72;;;0.00;88.30;;;;;;5037772;28;20386;-64
2024/03/09 03:56:30;;;;;;;11.77;5.57;;;0.00;88.40;;;;;;5035324;28;20109;-65
2024/03/09 03:58:55;;;;;;;16.13;6.15;;;0.00;88.50;;;;;;5030911;28;20084;-65
2024/03/09 04:01:24;;;;;;;13.55;5.93;;;0.00;88.80;;;;;;5041052;28;20080;-65
2024/03/09 04:03:49;;;;;;;13.15;6.28;;;0.00;88.80;;;;;;5040191;28;20047;-65
2024/03/09 04:06:15;;;;;;;13.50;5.93;;;-3276.70;88.80;;;;;;5028272;28;20033;-65
2024/03/09 04:08:40;;;;;;;10.88;5.22;;;-3276.70;88.90;;;;;;5036121;28;20088;-65
2024/03/09 04:11:06;;;;;;;15.27;7.47;;;-3276.70;89.20;;;;;;5036052;28;20037;-65
2024/03/09 04:13:32;;;;;;;15.75;6.20;;;-3276.70;89.30;;;;;;5038394;28;20114;-65
2024/03/09 04:15:58;;;;;;;11.68;5.53;;;-3276.60;89.30;;;;;;5033433;28;20406;-64
2024/03/09 04:18:26;;;;;;;14.45;6.75;;;-3276.60;89.50;;;;;;5036424;28;20033;-65
2024/03/09 04:20:53;;;;;;;16.08;6.90;;;-3276.50;89.50;;;;;;5034602;28;20068;-66
2024/03/09 04:23:21;;;;;;;14.20;5.68;;;-3276.60;89.70;;;;;;5036049;28;20033;-65
2024/03/09 04:25:46;;;;;;;14.75;6.30;;;-3276.50;89.90;;;;;;5033085;28;20108;-64
2024/03/09 04:28:16;;;;;;;13.25;6.10;;;-3276.50;89.90;;;;;;5034892;28;20041;-64
2024/03/09 04:30:44;;;;;;;12.75;7.03;;;-3276.50;89.90;;;;;;5029747;28;20028;-65
2024/03/09 04:33:11;;;;;;;14.30;6.80;;;-3276.40;90.10;;;;;;5031137;28;20065;-65
2024/03/09 04:35:37;;;;;;;13.88;6.60;;;-3276.50;90.20;;;;;;5037266;28;20115;-65
2024/03/09 04:38:07;;;;;;;13.02;5.70;;;-3276.50;90.40;;;;;;5033715;28;20040;-65
2024/03/09 04:40:36;;;;;;;11.48;5.65;;;-3276.50;90.30;;;;;;5032786;28;20025;-64
2024/03/09 04:43:05;;;;;;;19.23;6.80;;;-3276.60;90.40;;;;;;5033104;28;20132;-65
2024/03/09 04:45:34;;;;;;;16.58;7.78;;;-3276.60;90.40;;;;;;5033056;28;20306;-65
2024/03/09 04:48:01;;;;;;;14.82;6.43;;;-3276.70;90.40;;;;;;5038362;28;20050;-65
2024/03/09 04:50:28;;;;;;;16.77;6.95;;;-3276.70;90.20;;;;;;5028721;28;20323;-65
2024/03/09 04:52:56;;;;;;;18.73;8.20;;;-3276.60;90.30;;;;;;5033910;28;20036;-65
2024/03/09 04:55:29;;;;;;;14.88;7.07;;;-3276.60;90.30;;;;;;5037497;28;20059;-65
2024/03/09 04:57:55;;;;;;;14.32;6.60;;;-3276.60;90.40;;;;;;5040276;28;20049;-65
2024/03/09 05:00:21;;;;;;;15.05;6.78;;;-3276.70;90.50;;;;;;5028621;28;20094;-65
2024/03/09 05:02:48;;;;;;;18.20;7.45;;;-3276.60;90.40;;;;;;5032842;28;20112;-65
2024/03/09 05:05:14;;;;;;;13.60;6.50;;;-3276.50;90.60;;;;;;5031714;28;20076;-65
2024/03/09 05:07:43;;;;;;;17.85;7.97;;;-3276.50;90.80;;;;;;5039251;28;20353;-65
2024/03/09 05:10:10;;;;;;;15.85;7.60;;;-3276.60;90.80;;;;;;5034506;28;20034;-65
2024/03/09 05:12:36;;;;;;;15.15;6.57;;;-3276.60;91.00;;;;;;5028699;28;20033;-65
2024/03/09 05:15:02;;;;;;;11.90;6.30;;;-3276.60;90.70;;;;;;5031538;28;20492;-65
2024/03/09 05:17:28;;;;;;;18.05;6.93;;;-3276.60;90.90;;;;;;5038275;28;20037;-65
2024/03/09 05:19:53;;;;;;;15.00;6.60;;;-3276.50;90.70;;;;;;5030700;28;20064;-65
2024/03/09 05:22:19;;;;;;;14.48;6.40;;;-3276.40;91.00;;;;;;5031897;28;20032;-65
2024/03/09 05:24:44;;;;;;;15.18;6.72;;;-3276.50;91.30;;;;;;5029752;28;20072;-64
2024/03/09 05:27:10;;;;;;;17.73;7.55;;;-3276.50;91.30;;;;;;5030365;28;20029;-65
2024/03/09 05:29:36;;;;;;;14.90;7.03;;;-3276.40;91.10;;;;;;5031197;28;20109;-63
2024/03/09 05:32:03;;;;;;;13.57;6.28;;;-3276.40;91.40;;;;;;5030521;28;20071;-63
2024/03/09 05:34:29;;;;;;;15.13;6.53;;;-3276.40;91.70;;;;;;5026669;28;20022;-63
2024/03/09 05:36:55;;;;;;;17.95;7.47;;;-3276.50;91.70;;;;;;5035894;28;20035;-63
2024/03/09 05:39:21;;;;;;;15.88;6.63;;;-3276.50;91.50;;;;;;5030915;28;20083;-64
2024/03/09 05:41:48;;;;;;;16.48;7.43;;;-3276.60;91.60;;;;;;5034096;28;20053;-63
2024/03/09 05:44:14;;;;;;;18.73;7.65;;;-3276.50;91.50;;;;;;5024492;28;20026;-63
2024/03/09 05:46:39;;;;;;;18.27;8.05;;;-3276.50;91.80;;;;;;5031387;28;20116;-63
2024/03/09 05:49:05;;;;;;;17.50;8.50;;;-3276.60;91.60;;;;;;5031570;28;20022;-63
2024/03/09 05:51:31;;;;;;;14.50;7.80;;;-3276.60;91.60;;;;;;5025803;28;20032;-63
2024/03/09 05:53:56;;;;;;;16.63;6.53;;;-3276.50;91.60;;;;;;5034051;28;20061;-63
2024/03/09 05:56:22;;;;;;;20.98;8.50;;;-3276.40;91.60;;;;;;5033351;28;20047;-63
2024/03/09 05:58:47;;;;;;;16.35;6.40;;;-3276.50;91.90;;;;;;5034765;28;20034;-64
2024/03/09 06:01:13;;;;;;;18.00;7.82;;;-3276.50;91.90;;;;;;5036236;28;20044;-63
2024/03/09 06:03:41;;;;;;;16.08;7.82;;;-3276.50;91.80;;;;;;5043558;28;20048;-64
2024/03/09 06:06:08;;;;;;;17.48;7.18;;;-3276.40;92.00;;;;;;5033012;28;20034;-62
2024/03/09 06:08:34;;;;;;;13.77;7.20;;;-3276.40;92.10;;;;;;5025994;28;20029;-63
2024/03/09 06:11:01;;;;;;;20.63;7.57;;;-3276.40;92.10;;;;;;5030702;28;20083;-63
2024/03/09 06:13:27;;;;;;;16.77;6.50;;;-3276.40;92.10;;;;;;5024920;28;20065;-63
2024/03/09 06:15:54;;;;;;;17.13;7.32;;;-3276.40;92.30;;;;;;5031273;28;20349;-62
2024/03/09 06:18:22;;;;;;;16.23;7.18;;;-3276.40;92.30;;;;;;5036299;28;20124;-65
2024/03/09 06:20:48;;;;;;;20.58;7.75;;;-3276.50;92.40;;;;;;5027744;28;20038;-63
2024/03/09 06:23:14;;;;;;;15.85;7.70;;;-3276.50;92.40;;;;;;5031805;28;20103;-63
2024/03/09 06:25:40;;;;;;;14.45;6.93;;;-3276.50;92.60;;;;;;5032933;28;20124;-64
2024/03/09 06:28:12;;;;;;;16.92;7.30;;;-3276.50;92.50;;;;;;5031192;28;20358;-63
2024/03/09 06:30:37;;;;;;;17.10;7.35;;;-3276.70;92.30;;;;;;5039864;28;20040;-63
2024/03/09 06:33:03;;;;;;;18.10;8.13;;;-3276.70;92.30;;;;;;5040165;28;20041;-63
2024/03/09 06:35:30;;;;;;;20.10;7.78;;;-3276.70;92.30;;;;;;5032464;28;20069;-63
2024/03/09 06:38:01;;;;;;;15.80;6.60;;;0.00;92.20;;;;;;5039854;28;20404;-62
2024/03/09 06:40:27;;;;;;;;;;;0.00;92.10;;;;;;5036226;28;20040;-63
2024/03/09 06:42:59;;;;;;;20.05;7.88;;;0.10;92.00;;;;;;5037499;28;20126;-64
2024/03/09 06:45:26;;;;;;;14.98;7.20;;;0.10;91.80;;;;;;5035182;28;20033;-63
2024/03/09 06:47:52;;;;;;;17.05;8.57;;;0.10;91.90;;;;;;5034647;28;20468;-65
2024/03/09 06:50:18;;;;;;;16.38;7.50;;;0.10;91.90;;;;;;5037049;28;20038;-63
2024/03/09 06:52:43;;;;;;;19.92;8.65;;;0.10;91.70;;;;;;5042993;28;20060;-63
2024/03/09 06:55:09;;;;;;;16.77;7.57;;;0.30;91.60;;;;;;5035754;28;20033;-64
2024/03/09 06:57:35;;;;;;;18.20;7.93;;;0.30;91.60;;;;;;5038388;28;20081;-63
2024/03/09 07:00:12;;;;;;;15.82;7.15;;;0.40;91.60;;;;;;5040318;28;20223;-63
2024/03/09 07:02:38;;;;;;;16.77;7.90;;;0.40;91.40;;;;;;5052489;28;20159;-63
2024/03/09 07:05:10;;;;;;;17.65;7.38;;;0.40;91.40;;;;;;5033997;28;20084;-63
2024/03/09 07:07:42;;;;;;;15.57;7.18;;;0.60;91.20;;;;;;5040965;28;20421;-63
2024/03/09 07:10:11;;;;;;;16.50;7.60;;;0.60;91.10;;;;;;5039517;28;20507;-64
2024/03/09 07:12:39;;;;;;;16.63;8.30;;;0.70;91.00;;;;;;5036560;28;20116;-63
2024/03/09 07:15:15;;;;;;;19.52;8.65;;;0.80;90.80;;;;;;5040879;28;20204;-63
2024/03/09 07:17:44;;;;;;;18.15;8.77;;;0.90;90.70;;;;;;5037916;28;20207;-64
2024/03/09 07:20:11;;;;;;;15.43;7.47;;;1.00;90.40;;;;;;5039704;28;20048;-65
2024/03/09 07:22:41;;;;;;;15.43;7.68;;;1.10;90.30;;;;;;5042747;28;20041;-63
2024/03/09 07:25:13;;;;;;;16.63;8.97;;;1.10;89.80;;;;;;5041538;28;20025;-63
2024/03/09 07:27:41;;;;;;;17.80;7.28;;;1.20;89.70;;;;;;5032992;28;20096;-63
2024/03/09 07:30:11;;;;;;;20.63;9.98;;;1.30;89.90;;;;;;5033009;28;20060;-63
2024/03/09 07:32:43;;;;;;;17.63;8.38;;;1.30;89.30;;;;;;5038311;28;20044;-63
2024/03/09 07:35:15;;;;;;;17.38;8.88;;;1.50;89.40;;;;;;5035286;28;20061;-62
2024/03/09 07:37:48;;;;;;;15.80;7.63;;;1.60;89.10;;;;;;5031436;28;20044;-62
2024/03/09 07:40:16;;;;;;;15.45;8.15;;;1.60;88.80;;;;;;5040473;28;20124;-62
2024/03/09 07:42:42;;;;;;;16.67;8.38;;;1.80;89.00;;;;;;5035497;28;20064;-62
2024/03/09 07:45:15;;;;;;;16.95;8.00;;;1.90;88.40;;;;;;5039800;28;20112;-63
2024/03/09 07:47:45;;;;;;;15.77;7.95;;;2.00;87.90;;;;;;5038951;28;20031;-65
2024/03/09 07:50:13;;;;;;;20.63;8.77;;;2.10;88.10;;;;;;5039414;28;20041;-63
2024/03/09 07:52:59;;;;;;;17.38;9.32;;;2.30;87.90;;;;;;5044053;28;20050;-62
2024/03/09 07:55:26;;;;;;;15.90;7.97;;;2.30;86.90;;;;;;5035447;28;20443;-62
2024/03/09 07:57:59;;;;;;;17.52;8.35;;;2.60;87.00;;;;;;5033261;28;20147;-62
2024/03/09 08:00:33;;;;;;;18.52;8.18;;;2.70;87.00;;;;;;5048833;28;20040;-63
2024/03/09 08:02:59;;;;;;;22.33;7.53;;;2.80;86.20;;;;;;5043084;28;20057;-62
2024/03/09 08:05:26;;;;;;;18.10;7.95;;;2.90;85.80;;;;;;5041632;28;20039;-62
2024/03/09 08:07:52;;;;;;;16.92;8.07;;;2.90;85.60;;;;;;5032627;28;20037;-62
2024/03/09 08:10:20;;;;;;;17.80;8.65;;;3.00;85.50;;;;;;5036088;28;20044;-66
2024/03/09 08:12:46;;;;;;;16.77;7.03;;;3.30;85.40;;;;;;5029909;28;20550;-62
2024/03/09 08:15:13;;;;;;;15.55;7.70;;;3.40;84.60;;;;;;5037088;28;20060;-63
2024/03/09 08:17:39;;;;;;;17.73;8.75;;;3.50;84.00;;;;;;5038080;28;20083;-63
2024/03/09 08:20:07;;;;;;;19.60;9.43;;;3.60;83.70;;;;;;5042180;28;20448;-62
2024/03/09 08:22:33;;;;;;;21.95;8.57;;;3.70;83.40;;;;;;5032838;28;20025;-63
2024/03/09 08:25:00;;;;;;;14.82;7.30;;;3.80;83.40;;;;;;5034352;28;20030;-63
2024/03/09 08:27:26;;;;;;;18.33;8.00;;;4.10;82.70;;;;;;5031859;28;20437;-63
2024/03/09 08:29:51;;;;;;;13.52;7.22;;;4.10;82.40;;;;;;5030505;28;20081;-63
2024/03/09 08:32:17;;;;;;;13.75;6.30;;;4.40;82.00;;;;;;5031180;28;20106;-64
2024/03/09 08:34:42;;;;;;;15.98;7.68;;;4.40;81.60;;;;;;5036191;28;20029;-63
2024/03/09 08:37:10;;;;;;;13.65;7.13;;;4.80;81.10;;;;;;5027537;28;20041;-63
2024/03/09 08:39:37;;;;;;;16.38;7.85;;;5.00;80.40;;;;;;5037467;28;20390;-63
2024/03/09 08:42:05;;;;;;;14.77;7.15;;;5.10;79.40;;;;;;5033652;28;20120;-63
2024/03/09 08:44:33;;;;;;;15.45;7.90;;;5.10;79.40;;;;;;5035149;28;20060;-63
2024/03/09 08:46:59;;;;;;;14.63;7.22;;;5.30;79.20;;;;;;5038688;28;20438;-64
2024/03/09 08:49:24;;;;;;;13.73;7.10;;;5.30;78.70;;;;;;5032238;28;20085;-63
2024/03/09 08:51:52;;;;;;;13.23;6.93;;;5.70;79.20;;;;;;5034513;28;20109;-63
2024/03/09 08:54:18;;;;;;;12.55;6.28;;;5.80;77.50;;;;;;5035286;28;20116;-63
2024/03/09 08:56:43;;;;;;;12.60;6.20;;;6.10;77.40;;;;;;5038074;28;20460;-63
2024/03/09 08:59:09;;;;;;;16.48;7.30;;;6.10;77.10;;;;;;5034208;28;20110;-63
2024/03/09 09:01:35;;;;;;;14.73;7.50;;;6.20;77.00;;;;;;5034611;28;20044;-63
2024/03/09 09:04:03;;;;;;;13.88;7.05;;;6.10;75.30;;;;;;5037012;28;20081;-62
2024/03/09 09:06:30;;;;;;;12.77;6.45;;;6.10;76.20;;;;;;5039619;28;20105;-63
2024/03/09 09:08:58;;;;;;;15.48;6.82;;;6.00;75.60;;;;;;5036042;28;20101;-63
2024/03/09 09:11:24;;;;;;;11.95;6.22;;;5.90;76.50;;;;;;5031586;28;20033;-66
2024/03/09 09:13:49;;;;;;;14.07;7.28;;;6.30;75.80;;;;;;5036575;28;20041;-64
2024/03/09 09:16:18;;;;;;;12.38;7.18;;;6.40;74.40;;;;;;5030329;28;20103;-63
2024/03/09 09:18:43;;;;;;;13.32;6.97;;;6.20;76.10;;;;;;5038037;28;20068;-63
2024/03/09 09:21:09;;;;;;;11.93;5.70;;;6.70;75.20;;;;;;5040732;28;20389;-62
2024/03/09 09:23:35;;;;;;;15.10;7.20;;;6.60;73.80;;;;;;5028578;28;20025;-63
2024/03/09 09:26:01;;;;;;;13.68;7.25;;;7.10;73.70;;;;;;5030295;28;20343;-64
2024/03/09 09:28:28;;;;;;;18.00;7.25;;;7.10;73.30;;;;;;5032126;28;20103;-63
2024/03/09 09:30:53;;;;;;;13.93;6.15;;;7.30;73.50;;;;;;5033288;28;20112;-63
2024/03/09 09:33:19;;;;;;;15.40;7.47;;;7.30;73.10;;;;;;5040001;28;20182;-63
2024/03/09 09:35:46;;;;;;;14.20;6.80;;;7.20;72.50;;;;;;5033265;28;20819;-62
2024/03/09 09:38:17;;;;;;;12.15;7.05;;;7.10;72.60;;;;;;5034079;28;20029;-63
2024/03/09 09:40:45;;;;;;;14.95;7.88;;;6.90;72.60;;;;;;5040071;28;20021;-63
2024/03/09 09:43:11;;;;;;;12.70;7.20;;;7.20;73.50;;;;;;5030054;28;20128;-63
2024/03/09 09:45:43;;;;;;;13.55;7.05;;;7.20;72.00;;;;;;5037195;28;20041;-63
2024/03/09 09:48:10;;;;;;;16.40;7.30;;;7.10;71.90;;;;;;5032728;28;20476;-63
2024/03/09 09:50:37;;;;;;;12.18;6.57;;;7.50;72.70;;;;;;5030985;28;20040;-62
2024/03/09 09:53:07;;;;;;;10.55;6.70;;;7.40;71.40;;;;;;5038188;28;20050;-64
2024/03/09 09:55:35;;;;;;;13.98;6.45;;;7.10;71.70;;;;;;5042274;28;20043;-63
2024/03/09 09:58:01;;;;;;;13.95;7.45;;;7.80;72.80;;;;;;5037466;28;20453;-65
2024/03/09 10:00:26;;;;;;;10.75;5.75;;;7.90;70.40;;;;;;5031554;28;20029;-64
2024/03/09 10:02:58;;;;;;;13.48;7.22;;;8.10;69.90;;;;;;5029524;28;20083;-64
2024/03/09 10:05:28;;;;;;;11.57;6.25;;;8.30;70.30;;;;;;5032761;28;20410;-64
2024/03/09 10:07:59;;;;;;;12.98;6.97;;;8.30;68.80;;;;;;5037447;28;20029;-63
2024/03/09 10:10:30;;;;;;;10.48;5.97;;;8.30;68.20;;;;;;5034727;28;20080;-63
2024/03/09 10:13:17;;;;;;;11.98;6.13;;;8.10;69.40;;;;;;5034896;28;20029;-63
2024/03/09 10:15:50;;;;;;;12.25;6.00;;;8.30;69.20;;;;;;5036443;28;20139;-63
2024/03/09 10:18:16;;;;;;;13.32;7.05;;;8.30;69.80;;;;;;5040561;28;20025;-62
2024/03/09 10:20:42;;;;;;;12.75;6.78;;;8.50;68.60;;;;;;5036571;28;20025;-64
2024/03/09 10:23:12;;;;;;;14.38;6.70;;;8.60;69.10;;;;;;5032624;28;20202;-64
2024/03/09 10:25:38;;;;;;;12.02;6.32;;;8.40;67.60;;;;;;5036631;28;20445;-65
2024/03/09 10:28:08;;;;;;;12.32;6.50;;;8.60;68.20;;;;;;5034086;28;20370;-65
2024/03/09 10:30:37;;;;;;;16.80;8.05;;;8.30;68.20;;;;;;5032713;28;20183;-67
2024/03/09 10:33:15;;;;;;;12.63;6.35;;;8.70;68.70;;;;;;5042150;28;20408;-64
2024/03/09 10:35:42;;;;;;;11.23;5.65;;;8.60;68.30;;;;;;5035420;28;20064;-64
2024/03/09 10:38:09;;;;;;;13.82;7.20;;;8.50;67.20;;;;;;5032483;28;20035;-65
2024/03/09 10:40:35;;;;;;;11.18;6.75;;;8.70;67.30;;;;;;5031747;28;20415;-65
2024/03/09 10:43:01;;;;;;;11.75;5.57;;;8.50;67.40;;;;;;5035631;28;20099;-64
2024/03/09 10:45:33;;;;;;;13.88;6.82;;;8.50;67.00;;;;;;5030556;28;20037;-64
2024/03/09 10:48:05;;;;;;;11.55;5.80;;;8.70;66.50;;;;;;5039816;28;20108;-64
2024/03/09 10:50:35;;;;;;;10.43;5.70;;;8.80;68.10;;;;;;5037815;28;20029;-64
2024/03/09 10:53:09;;;;;;;10.20;5.50;;;8.90;66.10;;;;;;5036565;28;20033;-64
2024/03/09 10:56:15;;;;;;;13.13;6.47;;;8.90;65.80;;;;;;5041174;28;20032;-64
2024/03/09 10:58:41;;;;;;;9.95;5.22;;;8.70;66.60;;;;;;5036425;28;20107;-64
2024/03/09 11:01:08;;;;;;;12.35;6.53;;;8.40;66.50;;;;;;5039949;28;20125;-65
2024/03/09 11:03:35;;;;;;;13.90;6.53;;;8.50;66.90;;;;;;5034305;28;20037;-64
2024/03/09 11:06:01;;;;;;;10.80;5.68;;;8.80;66.10;;;;;;5037310;28;20076;-64
2024/03/09 11:08:26;;;;;;;13.27;6.78;;;8.80;66.00;;;;;;5029181;28;20303;-64
2024/03/09 11:10:53;;;;;;;11.27;5.72;;;9.10;65.70;;;;;;5043501;28;20053;-65
2024/03/09 11:13:19;;;;;;;10.88;6.18;;;9.30;66.70;;;;;;5029366;28;20030;-63
2024/03/09 11:15:50;;;;;;;13.75;6.75;;;9.10;64.60;;;;;;5030633;28;20127;-62
2024/03/09 11:18:16;;;;;;;14.63;6.78;;;9.30;65.70;;;;;;5039426;28;20113;-61
2024/03/09 11:20:54;;;;;;;11.57;6.05;;;9.90;65.00;;;;;;5033167;28;20055;-62
2024/03/09 11:23:23;;;;;;;12.95;6.68;;;9.60;63.10;;;;;;5036689;28;20025;-63
2024/03/09 11:25:51;;;;;;;12.93;6.40;;;10.00;64.10;;;;;;5039458;28;20026;-62
2024/03/09 11:28:20;;;;;;;12.43;6.45;;;9.70;64.70;;;;;;5035738;28;20040;-62
2024/03/09 11:31:07;;;;;;;10.93;5.95;;;9.70;63.60;;;;;;5039704;28;20029;-62
2024/03/09 11:33:34;;;;;;;13.45;6.30;;;9.80;63.90;;;;;;5036188;28;20041;-62
2024/03/09 11:35:59;;;;;;;11.07;5.97;;;9.80;63.00;;;;;;5035986;28;20052;-63
2024/03/09 11:38:27;;;;;;;10.98;6.00;;;9.70;62.90;;;;;;5042276;28;20029;-62
2024/03/09 11:40:53;;;;;;;10.15;4.97;;;9.20;63.90;;;;;;5041995;28;20179;-63
2024/03/09 11:43:19;;;;;;;8.88;4.40;;;9.00;63.90;;;;;;5037380;28;20127;-62
2024/03/09 11:45:45;;;;;;;9.32;4.32;;;9.50;62.80;;;;;;5038447;28;20037;-62
2024/03/09 11:48:11;;;;;;;12.02;5.40;;;9.60;64.10;;;;;;5035705;28;20525;-62
2024/03/09 11:50:40;;;;;;;10.82;5.38;;;9.60;63.20;;;;;;5039310;28;20082;-62
2024/03/09 11:53:08;;;;;;;10.13;5.07;;;10.20;63.00;;;;;;5033552;28;20030;-63
2024/03/09 11:55:38;;;;;;;8.98;4.47;;;10.20;61.00;;;;;;5042476;28;20096;-62
2024/03/09 11:58:10;;;;;;;11.27;4.88;;;10.60;60.50;;;;;;5033845;28;20086;-63
2024/03/09 12:00:35;;;;;;;10.65;4.97;;;10.00;60.90;;;;;;5033111;28;20033;-62
2024/03/09 12:03:14;;;;;;;10.52;5.07;;;9.60;62.40;;;;;;5034562;28;20041;-64
2024/03/09 12:05:43;;;;;;;9.43;4.78;;;9.80;61.30;;;;;;5037284;28;20100;-63
2024/03/09 12:08:09;;;;;;;10.00;4.38;;;9.80;61.70;;;;;;5043568;28;20903;-63
2024/03/09 12:10:36;;;;;;;9.20;4.22;;;10.10;61.40;;;;;;5036367;28;20049;-63
2024/03/09 12:13:01;;;;;;;9.55;4.80;;;10.10;61.50;;;;;;5036785;28;20417;-63
2024/03/09 12:15:28;;;;;;;7.25;3.88;;;9.80;62.30;;;;;;5033102;28;20038;-62
2024/03/09 12:17:54;;;;;;;8.82;4.22;;;9.80;61.20;;;;;;5032995;28;20060;-63
2024/03/09 12:20:20;;;;;;;7.93;3.85;;;9.60;62.00;;;;;;5035309;28;20067;-63
2024/03/09 12:22:46;;;;;;;9.43;5.35;;;9.50;61.70;;;;;;5035440;28;20125;-62
2024/03/09 12:25:12;;;;;;;7.78;4.15;;;9.20;64.00;;;;;;5045814;28;20042;-63
2024/03/09 12:27:39;;;;;;;9.32;4.53;;;9.90;62.40;;;;;;5031765;28;20150;-65
2024/03/09 12:30:08;;;;;;;9.27;4.13;;;10.10;61.10;;;;;;5033149;28;20026;-63
2024/03/09 12:32:35;;;;;;;10.32;4.13;;;10.20;62.20;;;;;;5031736;28;20026;-63
2024/03/09 12:35:01;;;;;;;9.30;4.30;;;10.70;60.00;;;;;;5037178;28;20036;-64
2024/03/09 12:37:27;;;;;;;8.38;4.78;;;11.20;59.50;;;;;;5039147;28;20391;-65
2024/03/09 12:40:18;;;;;;;9.25;4.32;;;11.00;58.70;;;;;;5037612;28;20095;-64
2024/03/09 12:42:44;;;;;;;10.40;4.50;;;11.10;58.20;;;;;;5037749;28;20048;-64
2024/03/09 12:45:23;;;;;;;9.90;4.10;;;11.30;57.50;;;;;;5041289;28;20494;-69